Time;durP1;ratioP1;P1;durP2;ratioP2;P2;SDS_P1;SDS_P2;PMS_P1;PMS_P2;Temp;Humidity;BMP_temperature;BMP_pressure;BME280_temperature;BME280_humidity;BME280_pressure;Samples;Min_cycle;Max_cycle;Signal;HPM_P1;HPM_P2
2023/06/19 00:00:33;;;;;;;9.65;8.18;;;21.20;98.90;;;;;;5011802;28;20131;-70
2023/06/19 00:02:59;;;;;;;11.55;8.68;;;21.20;99.00;;;;;;5012837;28;20103;-70
2023/06/19 00:05:25;;;;;;;9.27;8.07;;;21.20;99.00;;;;;;5012583;28;20045;-70
2023/06/19 00:07:51;;;;;;;9.48;8.27;;;21.20;99.20;;;;;;5010346;28;20053;-70
2023/06/19 00:10:17;;;;;;;9.00;7.68;;;21.20;99.30;;;;;;5012705;28;20054;-70
2023/06/19 00:12:43;;;;;;;9.25;7.90;;;21.20;99.40;;;;;;5015858;28;20053;-70
2023/06/19 00:15:09;;;;;;;9.65;8.45;;;21.20;99.60;;;;;;5014547;28;20049;-70
2023/06/19 00:17:37;;;;;;;10.90;7.90;;;21.20;99.70;;;;;;5016167;28;20041;-70
2023/06/19 00:20:05;;;;;;;9.38;7.47;;;21.20;99.90;;;;;;5016000;28;20108;-70
2023/06/19 00:22:31;;;;;;;9.13;7.55;;;21.20;99.90;;;;;;5016317;28;20100;-70
2023/06/19 00:24:57;;;;;;;9.15;8.07;;;21.20;99.90;;;;;;5015778;28;20046;-70
2023/06/19 00:27:24;;;;;;;8.80;7.53;;;21.20;99.90;;;;;;5014414;28;20042;-69
2023/06/19 00:29:52;;;;;;;10.13;7.95;;;21.30;99.90;;;;;;5016111;28;20049;-70
2023/06/19 00:32:18;;;;;;;8.48;7.55;;;21.20;99.90;;;;;;5016268;28;20045;-70
2023/06/19 00:34:43;;;;;;;12.23;8.23;;;21.20;99.90;;;;;;5014381;28;20056;-70
2023/06/19 00:37:13;;;;;;;11.85;7.55;;;21.20;99.90;;;;;;5014915;28;20041;-70
2023/06/19 00:39:39;;;;;;;9.60;7.82;;;21.20;99.90;;;;;;5015220;28;20042;-70
2023/06/19 00:42:05;;;;;;;8.57;7.68;;;21.20;99.90;;;;;;5015084;28;20042;-70
2023/06/19 00:44:31;;;;;;;10.50;7.82;;;21.20;99.90;;;;;;5016083;28;20099;-70
2023/06/19 00:47:00;;;;;;;9.73;8.27;;;21.10;99.90;;;;;;5016223;28;20042;-70
2023/06/19 00:49:28;;;;;;;10.68;7.82;;;21.10;99.90;;;;;;5015353;28;20053;-70
2023/06/19 00:51:54;;;;;;;8.60;7.70;;;21.10;99.90;;;;;;5015126;28;20404;-70
2023/06/19 00:54:21;;;;;;;9.57;7.55;;;21.10;99.90;;;;;;5015843;28;20041;-70
2023/06/19 00:56:46;;;;;;;11.07;7.97;;;21.10;99.90;;;;;;5013540;28;20057;-70
2023/06/19 00:59:17;;;;;;;9.25;8.10;;;21.10;99.90;;;;;;5016024;28;20038;-70
2023/06/19 01:01:43;;;;;;;10.43;6.80;;;21.00;99.90;;;;;;5014073;28;20168;-70
2023/06/19 01:04:09;;;;;;;7.70;6.35;;;21.00;99.90;;;;;;5014235;28;20184;-69
2023/06/19 01:06:52;;;;;;;9.70;7.30;;;21.00;99.90;;;;;;5015503;28;20113;-70
2023/06/19 01:09:20;;;;;;;9.25;7.38;;;21.00;99.90;;;;;;5015089;28;20041;-69
2023/06/19 01:11:53;;;;;;;9.15;6.97;;;21.00;99.90;;;;;;5015039;28;20042;-69
2023/06/19 01:14:25;;;;;;;7.82;6.80;;;21.00;99.90;;;;;;5015142;28;20050;-69
2023/06/19 01:16:51;;;;;;;12.18;6.93;;;21.00;99.90;;;;;;5014320;28;20046;-70
2023/06/19 01:19:21;;;;;;;8.25;6.55;;;21.10;99.90;;;;;;5014098;28;20045;-69
2023/06/19 01:21:48;;;;;;;8.60;7.10;;;21.20;99.90;;;;;;5014789;28;20521;-70
2023/06/19 01:24:14;;;;;;;7.50;6.43;;;21.20;99.90;;;;;;5012025;28;20049;-70
2023/06/19 01:26:40;;;;;;;10.43;6.97;;;21.30;99.90;;;;;;5014909;28;20057;-70
2023/06/19 01:29:06;;;;;;;10.93;7.38;;;21.30;99.90;;;;;;5015481;28;20073;-70
2023/06/19 01:31:59;;;;;;;8.38;7.00;;;21.30;99.90;;;;;;5013869;28;20065;-70
2023/06/19 01:34:27;;;;;;;9.27;7.32;;;21.30;99.70;;;;;;5012687;28;20039;-70
2023/06/19 01:36:57;;;;;;;13.27;7.10;;;21.30;99.50;;;;;;5014901;28;20089;-70
2023/06/19 01:39:24;;;;;;;9.70;7.43;;;21.30;99.50;;;;;;5013243;28;20176;-70
2023/06/19 01:41:51;;;;;;;10.23;7.13;;;21.40;99.50;;;;;;5014500;28;20045;-69
2023/06/19 01:44:17;;;;;;;9.70;6.65;;;21.40;99.40;;;;;;5013056;28;20046;-70
2023/06/19 01:46:43;;;;;;;10.95;7.15;;;21.40;99.30;;;;;;5014170;28;20417;-70
2023/06/19 01:49:09;;;;;;;9.98;7.10;;;21.40;99.20;;;;;;5015064;28;20128;-70
2023/06/19 01:51:38;;;;;;;7.82;6.45;;;21.40;99.10;;;;;;5012404;28;20108;-70
2023/06/19 01:54:04;;;;;;;9.20;6.82;;;21.30;99.00;;;;;;5013780;28;20045;-70
2023/06/19 01:56:30;;;;;;;8.73;7.07;;;21.40;98.90;;;;;;5013586;28;20508;-70
2023/06/19 01:58:56;;;;;;;10.43;6.72;;;21.40;98.80;;;;;;5013707;28;20054;-70
2023/06/19 02:01:24;;;;;;;9.95;6.70;;;21.40;98.70;;;;;;5012905;28;20046;-70
2023/06/19 02:03:50;;;;;;;9.13;7.07;;;21.40;98.60;;;;;;5014346;28;20049;-70
2023/06/19 02:06:18;;;;;;;10.93;6.93;;;21.40;98.30;;;;;;5012613;28;20077;-70
2023/06/19 02:08:44;;;;;;;9.15;7.25;;;21.40;98.30;;;;;;5012146;28;20042;-71
2023/06/19 02:11:10;;;;;;;9.48;6.97;;;21.50;98.00;;;;;;5013323;28;20040;-71
2023/06/19 02:13:35;;;;;;;8.50;6.63;;;21.50;97.70;;;;;;5011690;28;20111;-71
2023/06/19 02:16:01;;;;;;;8.20;6.85;;;21.60;97.40;;;;;;5014130;28;20465;-71
2023/06/19 02:18:29;;;;;;;8.73;6.78;;;21.60;97.10;;;;;;5014357;28;20053;-71
2023/06/19 02:20:55;;;;;;;8.07;6.78;;;21.60;96.80;;;;;;5011019;28;20391;-71
2023/06/19 02:23:20;;;;;;;8.52;6.97;;;21.70;96.70;;;;;;5010902;28;20065;-71
2023/06/19 02:25:46;;;;;;;9.18;7.47;;;21.70;96.50;;;;;;5012014;28;20042;-71
2023/06/19 02:28:12;;;;;;;10.05;7.07;;;21.70;96.50;;;;;;5012259;28;20085;-71
2023/06/19 02:30:41;;;;;;;8.98;7.03;;;21.70;96.50;;;;;;5012521;28;20063;-71
2023/06/19 02:33:07;;;;;;;10.63;7.35;;;22.70;96.60;;;;;;5011868;28;20453;-71
2023/06/19 02:35:33;;;;;;;10.93;7.45;;;21.80;96.10;;;;;;5010706;28;20046;-71
2023/06/19 02:37:59;;;;;;;11.88;7.30;;;21.70;96.20;;;;;;5012576;28;20494;-71
2023/06/19 02:40:25;;;;;;;11.13;6.70;;;21.70;96.10;;;;;;5014111;28;20045;-71
2023/06/19 02:42:50;;;;;;;8.88;7.20;;;21.70;96.20;;;;;;5012923;28;20478;-71
2023/06/19 02:45:19;;;;;;;9.45;7.00;;;21.70;96.00;;;;;;5013213;28;20038;-71
2023/06/19 02:47:44;;;;;;;8.80;6.70;;;21.80;95.80;;;;;;5011837;28;20061;-71
2023/06/19 02:50:10;;;;;;;10.05;7.38;;;21.90;95.60;;;;;;5014080;28;20398;-71
2023/06/19 02:52:36;;;;;;;9.32;7.57;;;21.80;95.70;;;;;;5013615;28;20449;-71
2023/06/19 02:55:02;;;;;;;9.50;7.57;;;21.80;95.80;;;;;;5012878;28;20052;-71
2023/06/19 02:57:27;;;;;;;8.90;7.30;;;21.80;96.00;;;;;;5012642;28;20474;-71
2023/06/19 02:59:53;;;;;;;8.82;7.47;;;21.90;96.50;;;;;;5013728;28;20038;-71
2023/06/19 03:02:19;;;;;;;10.00;8.05;;;21.80;97.40;;;;;;5012882;28;20104;-71
2023/06/19 03:04:51;;;;;;;10.43;8.77;;;21.60;98.60;;;;;;5013580;28;20046;-71
2023/06/19 03:07:17;;;;;;;12.23;8.38;;;21.50;98.90;;;;;;5013617;28;20049;-71
2023/06/19 03:09:43;;;;;;;11.50;7.97;;;21.30;99.80;;;;;;5010884;28;20045;-71
2023/06/19 03:12:09;;;;;;;11.35;8.35;;;21.10;99.90;;;;;;5013602;28;20386;-71
2023/06/19 03:14:35;;;;;;;13.20;8.80;;;21.00;99.90;;;;;;5013499;28;20077;-71
2023/06/19 03:17:01;;;;;;;9.93;7.78;;;21.00;99.90;;;;;;5011357;28;20091;-71
2023/06/19 03:19:27;;;;;;;11.38;8.43;;;20.90;99.90;;;;;;5012294;28;20053;-71
2023/06/19 03:21:52;;;;;;;11.52;8.65;;;20.80;99.90;;;;;;5010786;28;20104;-71
2023/06/19 03:24:18;;;;;;;13.65;8.23;;;20.90;99.90;;;;;;5012790;28;20128;-71
2023/06/19 03:26:44;;;;;;;9.98;8.48;;;20.80;99.90;;;;;;5013000;28;20078;-71
2023/06/19 03:29:09;;;;;;;12.43;8.45;;;20.70;99.90;;;;;;5013306;28;20049;-71
2023/06/19 03:31:39;;;;;;;10.02;7.68;;;20.60;99.90;;;;;;5012230;28;20116;-71
2023/06/19 03:34:05;;;;;;;8.88;7.13;;;20.50;99.90;;;;;;5012627;28;20061;-71
2023/06/19 03:36:31;;;;;;;8.10;6.05;;;20.50;99.90;;;;;;5012880;28;20042;-71
2023/06/19 03:38:57;;;;;;;10.20;6.32;;;20.40;99.90;;;;;;5011884;28;20125;-71
2023/06/19 03:41:23;;;;;;;7.53;5.68;;;20.30;99.90;;;;;;5012908;28;20496;-70
2023/06/19 03:43:52;;;;;;;8.98;5.35;;;20.30;99.90;;;;;;5012481;28;20140;-71
2023/06/19 03:46:17;;;;;;;7.03;4.70;;;20.20;99.90;;;;;;5012581;28;20038;-71
2023/06/19 03:48:43;;;;;;;7.88;4.28;;;20.10;99.90;;;;;;5012227;28;20180;-71
2023/06/19 03:51:08;;;;;;;6.70;4.72;;;20.00;99.90;;;;;;5011939;28;20042;-71
2023/06/19 03:53:34;;;;;;;7.30;4.30;;;20.10;99.90;;;;;;5011196;28;20049;-71
2023/06/19 03:56:00;;;;;;;5.90;4.40;;;20.00;99.90;;;;;;5011598;28;20050;-70
2023/06/19 03:58:25;;;;;;;6.47;4.20;;;20.00;99.90;;;;;;5010558;28;20054;-71
2023/06/19 04:00:51;;;;;;;6.20;4.38;;;19.90;99.90;;;;;;5011123;28;20871;-69
2023/06/19 04:03:17;;;;;;;5.80;4.07;;;19.90;99.90;;;;;;5012411;28;20045;-69
2023/06/19 04:05:43;;;;;;;6.38;3.85;;;19.90;99.90;;;;;;5010293;28;20042;-69
2023/06/19 04:08:09;;;;;;;5.82;3.80;;;19.90;99.90;;;;;;5011303;28;20586;-69
2023/06/19 04:10:34;;;;;;;5.13;3.80;;;19.90;99.90;;;;;;5012462;28;20126;-70
2023/06/19 04:13:00;;;;;;;6.55;3.70;;;19.90;99.90;;;;;;5011950;28;20049;-70
2023/06/19 04:15:26;;;;;;;5.43;3.38;;;20.00;99.90;;;;;;5012756;28;20041;-71
2023/06/19 04:17:54;;;;;;;4.35;3.08;;;20.10;99.90;;;;;;5012194;28;20081;-71
2023/06/19 04:20:20;;;;;;;4.45;3.20;;;20.00;99.90;;;;;;5009466;28;20104;-70
2023/06/19 04:22:46;;;;;;;5.70;3.20;;;20.10;99.90;;;;;;5011683;28;20062;-70
2023/06/19 04:25:11;;;;;;;6.03;3.35;;;20.10;99.90;;;;;;5012147;28;20069;-70
2023/06/19 04:27:37;;;;;;;8.43;3.30;;;20.10;99.90;;;;;;5011032;28;20544;-71
2023/06/19 04:30:06;;;;;;;3.95;2.88;;;20.10;99.90;;;;;;5011890;28;20475;-70
2023/06/19 04:32:32;;;;;;;6.85;3.03;;;20.00;99.90;;;;;;5009364;28;20128;-70
2023/06/19 04:35:00;;;;;;;4.30;3.00;;;20.10;99.90;;;;;;5012291;28;20049;-71
2023/06/19 04:37:26;;;;;;;6.38;2.92;;;20.10;99.90;;;;;;5011925;28;20050;-71
2023/06/19 04:39:52;;;;;;;4.03;2.47;;;20.10;99.90;;;;;;5007932;28;20050;-71
2023/06/19 04:42:19;;;;;;;5.38;3.50;;;20.10;99.90;;;;;;5008963;28;20053;-70
2023/06/19 04:44:48;;;;;;;6.10;3.67;;;20.20;99.90;;;;;;5011461;28;20053;-71
2023/06/19 04:47:16;;;;;;;6.45;4.53;;;20.30;99.90;;;;;;5009849;28;20077;-71
2023/06/19 04:49:42;;;;;;;6.75;4.88;;;20.40;99.90;;;;;;5010079;28;20050;-72
2023/06/19 04:52:08;;;;;;;7.70;5.95;;;20.40;99.90;;;;;;5012077;28;20528;-71
2023/06/19 04:54:34;;;;;;;7.88;6.10;;;20.40;99.90;;;;;;5010503;28;20508;-69
2023/06/19 04:56:59;;;;;;;8.27;6.25;;;20.40;99.90;;;;;;5009987;28;20117;-68
2023/06/19 04:59:26;;;;;;;8.25;5.40;;;20.50;99.90;;;;;;5010456;28;20046;-72
2023/06/19 05:01:54;;;;;;;7.45;6.32;;;20.50;99.90;;;;;;5011977;28;20893;-73
2023/06/19 05:04:22;;;;;;;13.35;6.70;;;20.50;99.90;;;;;;5014790;28;20064;-70
2023/06/19 05:06:48;;;;;;;10.88;6.65;;;20.50;99.90;;;;;;5014437;28;20045;-74
2023/06/19 05:09:14;;;;;;;9.15;6.85;;;20.50;99.90;;;;;;5013875;28;20050;-75
2023/06/19 05:11:39;;;;;;;9.65;6.43;;;20.40;99.90;;;;;;5013155;28;20037;-78
2023/06/19 05:14:05;;;;;;;11.30;6.90;;;20.40;99.90;;;;;;5015201;28;20046;-79
2023/06/19 05:16:34;;;;;;;9.50;7.07;;;20.40;99.90;;;;;;5014621;28;20057;-83
2023/06/19 05:19:00;;;;;;;13.45;8.35;;;20.50;99.90;;;;;;5015419;28;20478;-81
2023/06/19 05:21:26;;;;;;;12.13;8.45;;;20.50;99.90;;;;;;5015191;28;20132;-76
2023/06/19 05:23:52;;;;;;;13.75;9.98;;;20.50;99.90;;;;;;5013511;28;20069;-79
2023/06/19 05:26:22;;;;;;;15.93;10.50;;;20.60;99.90;;;;;;5013643;28;20037;-81
2023/06/19 05:28:49;;;;;;;17.38;11.38;;;20.60;99.90;;;;;;5014802;28;20481;-79
2023/06/19 05:31:18;;;;;;;19.65;13.38;;;20.60;99.90;;;;;;5013901;28;20056;-79
2023/06/19 05:33:44;;;;;;;23.33;15.50;;;20.70;99.90;;;;;;5014994;28;20038;-77
2023/06/19 05:36:13;;;;;;;22.83;15.48;;;21.00;99.90;;;;;;5015281;28;20525;-83
2023/06/19 05:38:41;;;;;;;25.75;18.75;;;21.00;99.90;;;;;;5013112;28;20124;-76
2023/06/19 05:41:08;;;;;;;23.70;19.10;;;21.00;99.90;;;;;;5014718;28;20041;-75
2023/06/19 05:43:34;;;;;;;26.33;19.20;;;21.00;99.90;;;;;;5013556;28;20041;-76
2023/06/19 05:46:02;;;;;;;27.30;21.55;;;21.10;99.90;;;;;;5013545;28;20049;-78
2023/06/19 05:48:28;;;;;;;26.45;21.42;;;21.20;99.90;;;;;;5012717;28;20053;-74
2023/06/19 05:50:53;;;;;;;31.48;23.25;;;21.10;99.90;;;;;;5013721;28;20438;-75
2023/06/19 05:53:19;;;;;;;28.55;22.13;;;21.10;99.90;;;;;;5014224;28;20045;-76
2023/06/19 05:55:45;;;;;;;27.73;22.60;;;20.90;99.90;;;;;;5012637;28;20125;-75
2023/06/19 05:58:11;;;;;;;28.73;21.75;;;21.00;99.90;;;;;;5012150;28;20041;-79
2023/06/19 06:00:36;;;;;;;24.08;18.25;;;21.10;99.90;;;;;;5011263;28;20056;-79
2023/06/19 06:03:02;;;;;;;30.00;20.38;;;21.10;99.90;;;;;;5010343;28;20038;-80
2023/06/19 06:05:28;;;;;;;27.98;17.92;;;20.90;99.90;;;;;;5007554;28;20045;-77
2023/06/19 06:07:55;;;;;;;28.35;21.48;;;21.00;99.90;;;;;;5008939;28;20050;-76
2023/06/19 06:10:22;;;;;;;26.45;21.75;;;20.90;99.90;;;;;;4990121;28;20513;-73
2023/06/19 06:12:51;;;;;;;28.88;20.80;;;20.80;99.90;;;;;;4990920;28;20745;-72
2023/06/19 06:15:17;;;;;;;30.83;23.92;;;21.00;99.90;;;;;;4993811;28;20046;-72
2023/06/19 06:17:42;;;;;;;28.10;21.95;;;20.90;99.90;;;;;;4992980;28;20073;-73
2023/06/19 06:20:12;;;;;;;31.55;23.20;;;21.00;99.90;;;;;;5028673;28;20136;-72
2023/06/19 06:22:44;;;;;;;27.52;23.58;;;21.00;99.90;;;;;;5015194;28;20060;-72
2023/06/19 06:25:13;;;;;;;29.60;23.50;;;20.90;99.90;;;;;;5012487;28;20057;-73
2023/06/19 06:27:42;;;;;;;28.10;22.20;;;20.70;99.90;;;;;;5010859;28;20477;-72
2023/06/19 06:30:08;;;;;;;27.52;21.50;;;20.80;99.90;;;;;;5012155;28;20049;-71
2023/06/19 06:32:34;;;;;;;26.25;21.42;;;20.70;99.90;;;;;;5013231;28;20052;-71
2023/06/19 06:35:00;;;;;;;28.98;22.00;;;20.70;99.90;;;;;;5011566;28;20140;-72
2023/06/19 06:37:26;;;;;;;31.55;22.55;;;20.80;99.90;;;;;;5013113;28;20123;-72
2023/06/19 06:39:55;;;;;;;30.80;23.50;;;20.60;99.90;;;;;;5011902;28;20050;-72
2023/06/19 06:42:23;;;;;;;29.73;22.55;;;20.60;99.90;;;;;;5013287;28;20041;-70
2023/06/19 06:44:49;;;;;;;34.05;25.02;;;20.70;99.90;;;;;;5012577;28;20393;-73
2023/06/19 06:47:14;;;;;;;29.70;23.98;;;20.60;99.90;;;;;;5043639;28;20041;-71
2023/06/19 06:49:40;;;;;;;33.90;23.67;;;20.40;99.90;;;;;;5011800;28;20050;-75
2023/06/19 06:52:07;;;;;;;31.10;23.17;;;20.30;99.90;;;;;;5012921;28;20041;-72
2023/06/19 06:54:32;;;;;;;32.40;22.58;;;20.10;99.90;;;;;;5010646;28;20042;-72
2023/06/19 06:56:59;;;;;;;34.53;23.88;;;20.20;99.90;;;;;;5011118;28;20122;-71
2023/06/19 06:59:26;;;;;;;31.90;22.58;;;20.10;99.90;;;;;;5012802;28;20045;-71
2023/06/19 07:01:53;;;;;;;33.75;22.40;;;20.10;99.90;;;;;;5007963;28;20093;-72
2023/06/19 07:04:19;;;;;;;34.40;22.25;;;20.00;99.90;;;;;;5011379;28;20042;-72
2023/06/19 07:06:45;;;;;;;33.97;22.88;;;19.90;99.90;;;;;;5011952;28;20038;-71
2023/06/19 07:09:11;;;;;;;34.85;24.10;;;19.80;99.90;;;;;;5010539;28;20038;-71
2023/06/19 07:11:37;;;;;;;34.92;23.05;;;19.70;99.90;;;;;;5010915;28;20091;-72
2023/06/19 07:14:05;;;;;;;35.10;22.25;;;19.70;99.90;;;;;;5012422;28;20461;-71
2023/06/19 07:16:31;;;;;;;36.30;22.98;;;19.70;99.90;;;;;;5010297;28;20030;-72
2023/06/19 07:18:57;;;;;;;35.05;21.75;;;19.60;99.90;;;;;;5011305;28;20053;-72
2023/06/19 07:21:25;;;;;;;34.72;23.13;;;19.50;99.90;;;;;;5009958;28;20133;-71
2023/06/19 07:23:51;;;;;;;36.00;23.80;;;19.50;99.90;;;;;;5011082;28;20438;-71
2023/06/19 07:26:17;;;;;;;34.50;22.77;;;19.50;99.90;;;;;;5011137;28;20061;-71
2023/06/19 07:28:45;;;;;;;34.92;22.83;;;19.50;99.90;;;;;;5011796;28;20046;-71
2023/06/19 07:31:11;;;;;;;32.47;20.63;;;19.50;99.90;;;;;;5012461;28;20061;-72
2023/06/19 07:33:37;;;;;;;34.45;21.65;;;19.40;99.90;;;;;;5010684;28;20046;-73
2023/06/19 07:36:03;;;;;;;36.70;22.58;;;19.40;99.90;;;;;;5042856;28;20129;-72
2023/06/19 07:38:32;;;;;;;33.72;20.02;;;19.20;99.90;;;;;;5010658;28;20512;-73
2023/06/19 07:40:58;;;;;;;29.80;18.52;;;19.20;99.90;;;;;;5013151;28;20041;-77
2023/06/19 07:43:23;;;;;;;28.92;17.60;;;19.20;99.90;;;;;;5011854;28;20454;-72
2023/06/19 07:45:49;;;;;;;25.40;16.35;;;19.20;99.90;;;;;;5012232;28;20673;-71
2023/06/19 07:48:15;;;;;;;24.58;15.30;;;19.20;99.90;;;;;;5007062;28;20046;-68
2023/06/19 07:50:41;;;;;;;23.17;14.38;;;19.30;99.90;;;;;;5007807;28;20046;-73
2023/06/19 07:53:07;;;;;;;23.27;13.02;;;19.20;99.90;;;;;;5007387;28;20125;-71
2023/06/19 07:55:35;;;;;;;19.80;12.90;;;19.20;99.90;;;;;;5010302;28;20183;-71
2023/06/19 07:58:00;;;;;;;20.00;12.68;;;19.30;99.90;;;;;;5010838;28;20056;-71
2023/06/19 08:00:26;;;;;;;20.98;12.18;;;19.20;99.90;;;;;;5011030;28;20124;-70
2023/06/19 08:02:55;;;;;;;19.15;11.70;;;19.10;99.90;;;;;;5009298;28;20061;-70
2023/06/19 08:05:20;;;;;;;15.65;11.57;;;19.10;99.90;;;;;;5009633;28;20114;-72
2023/06/19 08:07:46;;;;;;;15.52;11.70;;;19.10;99.90;;;;;;5008968;28;20077;-73
2023/06/19 08:10:12;;;;;;;17.08;12.35;;;19.10;99.90;;;;;;5013761;28;20050;-73
2023/06/19 08:12:40;;;;;;;18.58;13.07;;;19.00;99.90;;;;;;5011798;28;20046;-70
2023/06/19 08:15:06;;;;;;;20.95;13.65;;;18.90;99.90;;;;;;5010785;28;20038;-72
2023/06/19 08:17:32;;;;;;;20.02;13.80;;;18.80;99.90;;;;;;5010500;28;20104;-72
2023/06/19 08:19:58;;;;;;;17.88;13.57;;;18.70;99.90;;;;;;5010839;28;20042;-72
2023/06/19 08:22:24;;;;;;;18.58;13.73;;;18.80;99.90;;;;;;5011333;28;20053;-70
2023/06/19 08:24:50;;;;;;;20.83;15.23;;;18.80;99.90;;;;;;5011576;28;20124;-70
2023/06/19 08:27:16;;;;;;;20.38;14.45;;;18.80;99.90;;;;;;5042938;28;20561;-71
2023/06/19 08:29:45;;;;;;;21.25;14.73;;;18.90;99.90;;;;;;5010374;28;20100;-71
2023/06/19 08:32:10;;;;;;;20.83;14.80;;;18.90;99.90;;;;;;5012311;28;20392;-71
2023/06/19 08:34:37;;;;;;;24.85;15.27;;;18.80;99.90;;;;;;5013621;28;20124;-73
2023/06/19 08:37:04;;;;;;;19.13;13.48;;;18.90;99.90;;;;;;5014258;28;20050;-72
2023/06/19 08:39:30;;;;;;;19.55;13.50;;;19.00;99.90;;;;;;5013547;28;20048;-70
2023/06/19 08:41:56;;;;;;;18.80;13.27;;;19.10;99.90;;;;;;5047215;28;20049;-70
2023/06/19 08:44:22;;;;;;;16.90;11.90;;;19.20;99.90;;;;;;5015023;28;20085;-70
2023/06/19 08:46:48;;;;;;;19.20;13.60;;;19.30;99.90;;;;;;5014417;28;20049;-71
2023/06/19 08:49:13;;;;;;;19.90;13.13;;;19.30;99.90;;;;;;5013884;28;20053;-71
2023/06/19 08:51:40;;;;;;;19.63;13.00;;;19.30;99.90;;;;;;5015172;28;20497;-71
2023/06/19 08:54:08;;;;;;;20.90;13.60;;;19.40;99.90;;;;;;5013827;28;20093;-72
2023/06/19 08:56:35;;;;;;;19.83;12.93;;;19.40;99.90;;;;;;5014556;28;20038;-73
2023/06/19 08:59:14;;;;;;;18.83;13.57;;;19.40;99.90;;;;;;5015059;28;20042;-71
2023/06/19 09:01:51;;;;;;;18.35;12.80;;;19.40;99.90;;;;;;5013789;28;20081;-71
2023/06/19 09:04:19;;;;;;;19.42;12.45;;;19.30;99.90;;;;;;5014684;28;20034;-71
2023/06/19 09:07:07;;;;;;;18.05;11.55;;;19.20;99.90;;;;;;5014842;28;20041;-71
2023/06/19 09:09:33;;;;;;;17.33;12.10;;;19.30;99.90;;;;;;5013885;28;20129;-72
2023/06/19 09:12:07;;;;;;;17.63;11.73;;;19.20;99.90;;;;;;5014809;28;20073;-72
2023/06/19 09:14:40;;;;;;;18.02;13.27;;;19.20;99.90;;;;;;5013274;28;20046;-72
2023/06/19 09:17:12;;;;;;;18.42;12.27;;;19.10;99.90;;;;;;5014625;28;20054;-74
2023/06/19 09:19:47;;;;;;;23.08;13.52;;;19.00;99.90;;;;;;5014272;28;20042;-74
2023/06/19 09:22:13;;;;;;;20.60;12.98;;;19.00;99.90;;;;;;5013959;28;20399;-71
2023/06/19 09:24:41;;;;;;;17.60;11.98;;;19.10;99.90;;;;;;5014199;28;20054;-72
2023/06/19 09:27:13;;;;;;;20.40;12.80;;;19.10;99.90;;;;;;5014300;28;20414;-73
2023/06/19 09:29:41;;;;;;;22.35;12.57;;;19.10;99.90;;;;;;5011843;28;20053;-72
2023/06/19 09:32:21;;;;;;;21.60;13.77;;;19.10;99.90;;;;;;5014561;28;20041;-72
2023/06/19 09:34:48;;;;;;;20.10;13.10;;;19.20;99.90;;;;;;5013435;28;20038;-73
2023/06/19 09:37:14;;;;;;;21.77;12.30;;;19.10;99.90;;;;;;5012731;28;20050;-71
2023/06/19 09:39:44;;;;;;;18.05;12.25;;;19.20;99.90;;;;;;5013464;28;20053;-71
2023/06/19 09:42:10;;;;;;;19.52;13.23;;;19.30;99.90;;;;;;5009718;28;20084;-72
2023/06/19 09:44:44;;;;;;;18.83;12.93;;;19.20;99.90;;;;;;5011692;28;20073;-74
2023/06/19 09:47:23;;;;;;;19.80;11.60;;;19.30;99.90;;;;;;5013901;28;20034;-72
2023/06/19 09:49:54;;;;;;;19.23;13.25;;;19.30;99.90;;;;;;5012537;28;20401;-72
2023/06/19 09:52:22;;;;;;;20.67;13.15;;;19.30;99.90;;;;;;5012376;28;20495;-73
2023/06/19 09:54:52;;;;;;;19.88;13.80;;;19.40;99.90;;;;;;5011638;28;20038;-72
2023/06/19 09:57:18;;;;;;;21.73;14.02;;;19.50;99.90;;;;;;5007822;28;20049;-71
2023/06/19 09:59:56;;;;;;;21.70;14.50;;;19.50;99.90;;;;;;5044675;28;20095;-71
2023/06/19 10:02:29;;;;;;;21.75;14.02;;;19.60;99.90;;;;;;5013135;28;20044;-71
2023/06/19 10:04:55;;;;;;;20.42;13.05;;;19.80;99.90;;;;;;5011615;28;20485;-72
2023/06/19 10:07:27;;;;;;;19.27;13.63;;;19.70;99.90;;;;;;5012359;28;20045;-71
2023/06/19 10:10:07;;;;;;;18.40;11.98;;;20.00;99.90;;;;;;5011980;28;20058;-71
2023/06/19 10:12:39;;;;;;;16.48;12.20;;;20.20;99.90;;;;;;5012805;28;20050;-71
2023/06/19 10:15:24;;;;;;;16.77;11.50;;;20.40;99.90;;;;;;5012916;28;20520;-71
2023/06/19 10:18:00;;;;;;;19.53;13.57;;;20.70;99.90;;;;;;5012496;28;20401;-70
2023/06/19 10:20:32;;;;;;;17.85;12.43;;;21.00;99.90;;;;;;5013517;28;20050;-72
2023/06/19 10:23:01;;;;;;;16.70;13.13;;;21.10;99.90;;;;;;5011533;28;20054;-71
2023/06/19 10:25:38;;;;;;;18.75;12.95;;;21.10;99.90;;;;;;5011062;28;20061;-71
2023/06/19 10:28:15;;;;;;;22.42;14.85;;;21.20;99.90;;;;;;4994353;28;20042;-71
2023/06/19 10:30:41;;;;;;;21.98;14.95;;;20.80;99.90;;;;;;4993051;28;20050;-70
2023/06/19 10:33:07;;;;;;;22.90;14.88;;;20.60;99.90;;;;;;4993507;28;20505;-70
2023/06/19 10:35:40;;;;;;;22.90;14.77;;;20.60;99.90;;;;;;5000222;28;20109;-71
2023/06/19 10:38:06;;;;;;;23.90;14.93;;;20.60;99.90;;;;;;5013996;28;20099;-71
2023/06/19 10:40:32;;;;;;;24.63;16.08;;;20.80;99.90;;;;;;5011557;28;20493;-71
2023/06/19 10:42:58;;;;;;;28.13;18.45;;;20.80;99.90;;;;;;5012686;28;20053;-71
2023/06/19 10:45:28;;;;;;;24.10;17.02;;;20.80;99.90;;;;;;5013757;28;20587;-70
2023/06/19 10:47:54;;;;;;;29.35;19.08;;;20.70;99.90;;;;;;5012812;28;20054;-71
2023/06/19 10:50:24;;;;;;;27.20;18.08;;;20.70;99.90;;;;;;5013136;28;20077;-71
2023/06/19 10:52:54;;;;;;;23.85;17.02;;;20.80;99.90;;;;;;5012355;28;20090;-71
2023/06/19 10:55:21;;;;;;;27.23;18.33;;;21.00;99.90;;;;;;5012528;28;20210;-71
2023/06/19 10:57:48;;;;;;;25.02;16.83;;;21.10;99.90;;;;;;5012436;28;20072;-70
2023/06/19 11:00:29;;;;;;;24.20;16.55;;;21.10;99.90;;;;;;5011971;28;20046;-71
2023/06/19 11:02:58;;;;;;;23.77;16.90;;;21.20;99.90;;;;;;5013948;28;20145;-71
2023/06/19 11:05:26;;;;;;;24.27;16.25;;;21.10;99.90;;;;;;5013171;28;20045;-71
2023/06/19 11:07:55;;;;;;;21.88;15.07;;;21.10;99.90;;;;;;5012375;28;20042;-71
2023/06/19 11:10:26;;;;;;;20.05;14.57;;;20.90;99.90;;;;;;5011942;28;20050;-71
2023/06/19 11:12:57;;;;;;;17.80;12.90;;;21.30;99.90;;;;;;5012706;28;20050;-71
2023/06/19 11:15:33;;;;;;;15.05;10.75;;;21.60;99.90;;;;;;5011315;28;20516;-71
2023/06/19 11:18:01;;;;;;;17.65;12.27;;;22.10;99.90;;;;;;5045446;28;20415;-71
2023/06/19 11:20:27;;;;;;;17.08;11.52;;;22.20;99.90;;;;;;5012444;28;20500;-71
2023/06/19 11:22:59;;;;;;;16.70;11.80;;;22.40;99.90;;;;;;5011168;28;20053;-72
2023/06/19 11:25:36;;;;;;;17.83;12.23;;;22.40;99.90;;;;;;5012787;28;20050;-70
2023/06/19 11:28:14;;;;;;;15.90;11.52;;;22.50;99.90;;;;;;5011211;28;20503;-70
2023/06/19 11:30:44;;;;;;;13.55;11.10;;;22.60;99.90;;;;;;5011209;28;20093;-70
2023/06/19 11:33:21;;;;;;;14.20;11.18;;;22.60;99.90;;;;;;5012470;28;20048;-70
2023/06/19 11:36:03;;;;;;;13.50;10.93;;;22.60;99.90;;;;;;5011396;28;20077;-70
2023/06/19 11:38:28;;;;;;;14.20;10.80;;;22.90;99.90;;;;;;5013028;28;20057;-70
2023/06/19 11:40:55;;;;;;;17.25;8.90;;;23.00;99.90;;;;;;5010898;28;20045;-71
2023/06/19 11:43:31;;;;;;;13.93;10.48;;;23.10;99.90;;;;;;5010224;28;20049;-70
2023/06/19 11:46:04;;;;;;;13.27;10.25;;;23.40;99.90;;;;;;5011245;28;20052;-70
2023/06/19 11:48:30;;;;;;;13.60;8.98;;;23.60;99.90;;;;;;5011588;28;20129;-71
2023/06/19 11:50:58;;;;;;;11.50;8.90;;;23.90;99.90;;;;;;5010241;28;20140;-70
2023/06/19 11:53:27;;;;;;;10.70;8.82;;;23.80;99.90;;;;;;5012375;28;20538;-70
2023/06/19 11:55:53;;;;;;;9.27;7.28;;;23.90;99.90;;;;;;5010913;28;20057;-70
2023/06/19 11:58:22;;;;;;;11.40;8.43;;;24.10;99.90;;;;;;5010631;28;20050;-71
2023/06/19 12:00:48;;;;;;;8.38;6.20;;;24.40;99.90;;;;;;5012440;28;20029;-71
2023/06/19 12:03:14;;;;;;;9.82;6.93;;;24.50;98.70;;;;;;5010028;28;20056;-70
2023/06/19 12:05:40;;;;;;;9.20;7.03;;;24.50;99.40;;;;;;5012379;28;20134;-71
2023/06/19 12:08:06;;;;;;;8.70;6.20;;;24.70;99.00;;;;;;5013606;28;20038;-70
2023/06/19 12:10:32;;;;;;;8.70;6.82;;;24.80;97.90;;;;;;5014890;28;20085;-70
2023/06/19 12:12:58;;;;;;;7.97;6.18;;;25.00;98.20;;;;;;5015412;28;20381;-70
2023/06/19 12:15:25;;;;;;;10.07;7.18;;;25.10;97.70;;;;;;5016527;28;20096;-71
2023/06/19 12:17:54;;;;;;;7.85;6.10;;;25.30;97.90;;;;;;5015563;28;20050;-70
2023/06/19 12:20:19;;;;;;;8.60;6.15;;;25.20;97.30;;;;;;5013243;28;20038;-70
2023/06/19 12:22:45;;;;;;;9.38;6.75;;;25.20;96.90;;;;;;5013992;28;20513;-70
2023/06/19 12:25:11;;;;;;;7.88;6.22;;;25.10;97.10;;;;;;5013711;28;20048;-71
2023/06/19 12:27:38;;;;;;;7.18;6.05;;;25.30;97.50;;;;;;5015235;28;20418;-70
2023/06/19 12:30:05;;;;;;;9.40;7.00;;;25.50;96.40;;;;;;5013870;28;20445;-71
2023/06/19 12:32:33;;;;;;;8.45;6.65;;;25.50;96.20;;;;;;5014453;28;20052;-71
2023/06/19 12:34:59;;;;;;;10.57;7.20;;;25.50;96.60;;;;;;5014899;28;20042;-70
2023/06/19 12:37:25;;;;;;;8.65;6.03;;;25.60;96.20;;;;;;5015231;28;20064;-72